Time,TemperatureF,DewpointF,PressureIn,WindDirection,WindDirectionDegrees,WindSpeedMPH,WindSpeedGustMPH,Humidity,HourlyPrecipIn,Conditions,Clouds,dailyrainin,SoftwareType,DateUTC
2013-01-04 00:03:00,36.3,33.9,30.30,NW,321,0.0,0.0,91,0.00,,---,0.00,VWS V14.01,2013-01-04 08:03:00,
2013-01-04 00:08:00,36.2,33.8,30.29,NW,321,0.0,0.0,91,0.00,,---,0.00,VWS V14.01,2013-01-04 08:08:00,
2013-01-04 00:13:00,36.1,34.0,30.30,NW,321,0.0,0.0,92,0.00,,---,0.00,VWS V14.01,2013-01-04 08:13:00,
2013-01-04 00:18:00,36.1,34.0,30.30,NW,321,0.0,0.0,92,0.00,,---,0.00,VWS V14.01,2013-01-04 08:18:00,
2013-01-04 00:23:00,36.1,34.0,30.29,NW,321,0.0,0.0,92,0.00,,---,0.00,VWS V14.01,2013-01-04 08:23:00,
2013-01-04 00:28:00,36.0,33.9,30.30,NW,321,0.0,0.0,92,0.00,,---,0.00,VWS V14.01,2013-01-04 08:28:00,
2013-01-04 00:33:00,35.9,33.8,30.30,NW,321,0.0,0.0,92,0.00,,---,0.00,VWS V14.01,2013-01-04 08:33:00,
2013-01-04 00:38:00,35.8,33.7,30.30,NW,321,0.0,0.0,92,0.00,,---,0.00,VWS V14.01,2013-01-04 08:38:00,
2013-01-04 00:43:00,35.7,33.6,30.30,NW,321,0.0,0.0,92,0.00,,---,0.00,VWS V14.01,2013-01-04 08:43:00,
2013-01-04 00:48:00,35.6,33.5,30.29,NW,321,0.0,0.0,92,0.00,,---,0.00,VWS V14.01,2013-01-04 08:48:00,
2013-01-04 00:53:00,35.6,33.5,30.29,NW,321,0.0,0.0,92,0.00,,---,0.00,VWS V14.01,2013-01-04 08:53:00,
2013-01-04 00:58:00,35.6,33.5,30.29,NW,321,0.0,0.0,92,0.00,,---,0.00,VWS V14.01,2013-01-04 08:58:00,
2013-01-04 01:03:00,35.7,33.6,30.29,NW,321,0.0,0.0,92,0.00,,---,0.00,VWS V14.01,2013-01-04 09:03:00,
2013-01-04 01:08:00,35.6,33.5,30.29,NW,321,0.0,0.0,92,0.00,,---,0.00,VWS V14.01,2013-01-04 09:08:00,
2013-01-04 01:13:00,35.6,33.5,30.29,NW,321,0.0,0.0,92,0.00,,---,0.00,VWS V14.01,2013-01-04 09:13:00,
2013-01-04 01:18:00,35.5,33.4,30.29,NW,321,0.0,0.0,92,0.00,,---,0.00,VWS V14.01,2013-01-04 09:18:00,
2013-01-04 01:23:00,35.5,33.4,30.29,NW,321,0.0,0.0,92,0.00,,---,0.00,VWS V14.01,2013-01-04 09:23:00,
2013-01-04 01:28:00,35.4,33.3,30.29,NW,321,0.0,0.0,92,0.00,,---,0.00,VWS V14.01,2013-01-04 09:28:00,
2013-01-04 01:33:00,35.4,33.3,30.29,NW,321,0.0,0.0,92,0.00,,---,0.00,VWS V14.01,2013-01-04 09:33:00,
2013-01-04 01:38:00,35.4,33.3,30.29,NW,321,0.0,0.0,92,0.00,,---,0.00,VWS V14.01,2013-01-04 09:38:00,
2013-01-04 01:43:00,35.3,33.2,30.29,NW,321,0.0,0.0,92,0.00,,---,0.00,VWS V14.01,2013-01-04 09:43:00,
2013-01-04 01:48:00,35.3,33.2,30.29,NW,321,0.0,0.0,92,0.00,,---,0.00,VWS V14.01,2013-01-04 09:48:00,
2013-01-04 01:52:00,35.2,33.1,30.29,NW,321,0.0,0.0,92,0.00,,---,0.00,VWS V14.01,2013-01-04 09:52:00,
2013-01-04 01:57:00,35.1,33.0,30.29,NW,321,0.0,0.0,92,0.00,,---,0.00,VWS V14.01,2013-01-04 09:57:00,
2013-01-04 02:02:00,35.0,32.9,30.29,NW,321,0.0,0.0,92,0.00,,---,0.00,VWS V14.01,2013-01-04 10:02:00,
2013-01-04 02:07:00,34.9,32.8,30.29,NW,321,0.0,0.0,92,0.00,,---,0.00,VWS V14.01,2013-01-04 10:07:00,
2013-01-04 02:12:00,34.9,32.8,30.29,NW,321,0.0,0.0,92,0.00,,---,0.00,VWS V14.01,2013-01-04 10:12:00,
2013-01-04 02:17:00,34.9,32.8,30.29,NW,321,0.0,0.0,92,0.00,,---,0.00,VWS V14.01,2013-01-04 10:17:00,
2013-01-04 02:22:00,34.8,32.7,30.29,NW,321,0.0,0.0,92,0.00,,---,0.00,VWS V14.01,2013-01-04 10:22:00,
2013-01-04 02:27:00,34.7,32.6,30.29,NW,321,0.0,0.0,92,0.00,,---,0.00,VWS V14.01,2013-01-04 10:27:00,
2013-01-04 02:32:00,34.7,32.6,30.29,NW,321,0.0,0.0,92,0.00,,---,0.00,VWS V14.01,2013-01-04 10:32:00,
2013-01-04 02:37:00,34.7,32.6,30.29,NW,321,0.0,0.0,92,0.00,,---,0.00,VWS V14.01,2013-01-04 10:37:00,
2013-01-04 02:42:00,34.6,32.5,30.30,NW,321,0.0,0.0,92,0.00,,---,0.00,VWS V14.01,2013-01-04 10:42:00,
2013-01-04 02:47:00,34.6,32.5,30.30,NW,321,0.0,0.0,92,0.00,,---,0.00,VWS V14.01,2013-01-04 10:47:00,
2013-01-04 02:52:00,34.5,32.4,30.29,NW,321,0.0,0.0,92,0.00,,---,0.00,VWS V14.01,2013-01-04 10:52:00,
2013-01-04 02:57:00,34.4,32.3,30.29,NW,321,0.0,0.0,92,0.00,,---,0.00,VWS V14.01,2013-01-04 10:57:00,
2013-01-04 03:02:00,34.4,32.3,30.29,NW,321,0.0,0.0,92,0.00,,---,0.00,VWS V14.01,2013-01-04 11:02:00,
2013-01-04 03:07:00,34.4,32.3,30.30,NW,321,0.0,0.0,92,0.00,,---,0.00,VWS V14.01,2013-01-04 11:07:00,
2013-01-04 03:12:00,34.4,32.3,30.30,NW,321,0.0,0.0,92,0.00,,---,0.00,VWS V14.01,2013-01-04 11:12:00,
2013-01-04 03:17:00,34.4,32.3,30.30,NW,321,0.0,0.0,92,0.00,,---,0.00,VWS V14.01,2013-01-04 11:17:00,
2013-01-04 03:22:00,34.3,32.2,30.30,NW,321,0.0,0.0,92,0.00,,---,0.00,VWS V14.01,2013-01-04 11:22:00,
2013-01-04 03:27:00,34.2,32.1,30.30,NW,321,0.0,0.0,92,0.00,,---,0.00,VWS V14.01,2013-01-04 11:27:00,
2013-01-04 03:32:00,34.4,32.6,30.30,NW,321,0.0,0.0,93,0.00,,---,0.00,VWS V14.01,2013-01-04 11:32:00,
2013-01-04 03:37:00,34.5,33.0,30.30,NW,321,0.0,0.0,94,0.00,,---,0.00,VWS V14.01,2013-01-04 11:37:00,
2013-01-04 03:42:00,34.4,32.6,30.30,NW,321,0.0,0.0,93,0.00,,---,0.00,VWS V14.01,2013-01-04 11:42:00,
2013-01-04 03:47:00,34.4,32.6,30.29,NW,321,0.0,0.0,93,0.00,,---,0.00,VWS V14.01,2013-01-04 11:47:00,
2013-01-04 03:52:00,34.3,32.5,30.29,NW,321,0.0,0.0,93,0.00,,---,0.00,VWS V14.01,2013-01-04 11:52:00,
2013-01-04 03:57:00,34.1,32.0,30.29,NW,321,0.0,0.0,92,0.00,,---,0.00,VWS V14.01,2013-01-04 11:57:00,
2013-01-04 04:02:00,33.9,31.8,30.29,NW,321,0.0,0.0,92,0.00,,---,0.00,VWS V14.01,2013-01-04 12:02:00,
2013-01-04 04:07:00,33.8,31.7,30.29,NW,321,0.0,0.0,92,0.00,,---,0.00,VWS V14.01,2013-01-04 12:07:00,
2013-01-04 04:12:00,33.7,31.9,30.29,NW,321,0.0,0.0,93,0.00,,---,0.00,VWS V14.01,2013-01-04 12:12:00,
2013-01-04 04:17:00,33.7,31.9,30.29,NW,321,0.0,0.0,93,0.00,,---,0.00,VWS V14.01,2013-01-04 12:17:00,
2013-01-04 04:22:00,33.6,31.8,30.29,NW,321,0.0,0.0,93,0.00,,---,0.00,VWS V14.01,2013-01-04 12:22:00,
2013-01-04 04:27:00,33.6,31.8,30.28,NW,322,1.0,1.0,93,0.00,,---,0.00,VWS V14.01,2013-01-04 12:27:00,
2013-01-04 04:32:00,33.6,31.8,30.28,NW,321,0.0,0.0,93,0.00,,---,0.00,VWS V14.01,2013-01-04 12:32:00,
2013-01-04 04:37:00,33.6,31.8,30.28,NW,321,0.0,0.0,93,0.00,,---,0.00,VWS V14.01,2013-01-04 12:37:00,
2013-01-04 04:42:00,33.7,31.9,30.28,NW,321,0.0,0.0,93,0.00,,---,0.00,VWS V14.01,2013-01-04 12:42:00,
2013-01-04 04:47:00,33.7,31.9,30.28,NW,321,0.0,0.0,93,0.00,,---,0.00,VWS V14.01,2013-01-04 12:47:00,
2013-01-04 04:52:00,33.7,31.9,30.28,NW,321,0.0,0.0,93,0.00,,---,0.00,VWS V14.01,2013-01-04 12:52:00,
2013-01-04 04:57:00,33.8,32.0,30.28,NW,321,0.0,0.0,93,0.00,,---,0.00,VWS V14.01,2013-01-04 12:57:00,
2013-01-04 05:02:00,33.8,32.0,30.28,NW,321,0.0,0.0,93,0.00,,---,0.00,VWS V14.01,2013-01-04 13:02:00,
2013-01-04 05:07:00,33.8,32.0,30.28,NW,321,0.0,0.0,93,0.00,,---,0.00,VWS V14.01,2013-01-04 13:07:00,
2013-01-04 05:12:00,33.8,32.0,30.28,NW,321,0.0,0.0,93,0.00,,---,0.00,VWS V14.01,2013-01-04 13:12:00,
2013-01-04 05:17:00,33.8,32.0,30.28,NW,321,0.0,0.0,93,0.00,,---,0.00,VWS V14.01,2013-01-04 13:17:00,
2013-01-04 05:22:00,33.7,31.9,30.28,NW,321,0.0,0.0,93,0.00,,---,0.00,VWS V14.01,2013-01-04 13:22:00,
2013-01-04 05:27:00,33.8,32.0,30.28,NW,321,0.0,0.0,93,0.00,,---,0.00,VWS V14.01,2013-01-04 13:27:00,
2013-01-04 05:32:00,33.8,32.0,30.29,NW,321,0.0,0.0,93,0.00,,---,0.00,VWS V14.01,2013-01-04 13:32:00,
2013-01-04 05:37:00,33.7,31.9,30.29,NW,321,0.0,0.0,93,0.00,,---,0.00,VWS V14.01,2013-01-04 13:37:00,
2013-01-04 05:42:00,33.6,31.8,30.29,NW,321,0.0,0.0,93,0.00,,---,0.00,VWS V14.01,2013-01-04 13:42:00,
2013-01-04 05:47:00,33.4,31.6,30.29,NW,321,0.0,0.0,93,0.00,,---,0.00,VWS V14.01,2013-01-04 13:47:00,
2013-01-04 05:52:00,33.3,31.5,30.29,NW,321,0.0,0.0,93,0.00,,---,0.00,VWS V14.01,2013-01-04 13:52:00,
2013-01-04 05:57:00,33.2,31.4,30.29,NW,321,0.0,0.0,93,0.00,,---,0.00,VWS V14.01,2013-01-04 13:57:00,
2013-01-04 06:02:00,33.1,31.3,30.30,NW,321,0.0,0.0,93,0.00,,---,0.00,VWS V14.01,2013-01-04 14:02:00,
2013-01-04 06:07:00,33.0,31.2,30.30,NW,321,0.0,0.0,93,0.00,,---,0.00,VWS V14.01,2013-01-04 14:07:00,
2013-01-04 06:12:00,32.9,31.1,30.30,NW,321,0.0,0.0,93,0.00,,---,0.00,VWS V14.01,2013-01-04 14:12:00,
2013-01-04 06:17:00,32.9,31.1,30.30,NW,321,0.0,0.0,93,0.00,,---,0.00,VWS V14.01,2013-01-04 14:17:00,
2013-01-04 06:22:00,32.9,31.1,30.30,NW,321,0.0,0.0,93,0.00,,---,0.00,VWS V14.01,2013-01-04 14:22:00,
2013-01-04 06:27:00,32.9,31.1,30.30,NW,321,0.0,0.0,93,0.00,,---,0.00,VWS V14.01,2013-01-04 14:27:00,
2013-01-04 06:32:00,32.8,31.0,30.30,NW,321,0.0,0.0,93,0.00,,---,0.00,VWS V14.01,2013-01-04 14:32:00,
2013-01-04 06:37:00,32.8,31.0,30.30,NW,321,0.0,0.0,93,0.00,,---,0.00,VWS V14.01,2013-01-04 14:37:00,
2013-01-04 06:42:00,32.8,31.0,30.30,NW,321,0.0,0.0,93,0.00,,---,0.00,VWS V14.01,2013-01-04 14:42:00,
2013-01-04 06:47:00,32.7,30.9,30.31,NW,321,0.0,0.0,93,0.00,,---,0.00,VWS V14.01,2013-01-04 14:47:00,
2013-01-04 06:52:00,32.6,30.8,30.31,NW,321,0.0,0.0,93,0.00,,---,0.00,VWS V14.01,2013-01-04 14:52:00,
2013-01-04 06:57:00,32.6,30.8,30.31,NW,321,0.0,0.0,93,0.00,,---,0.00,VWS V14.01,2013-01-04 14:57:00,
2013-01-04 07:02:00,32.5,30.7,30.31,NW,321,0.0,0.0,93,0.00,,---,0.00,VWS V14.01,2013-01-04 15:02:00,
2013-01-04 07:07:00,32.4,30.6,30.31,NW,321,0.0,0.0,93,0.00,,---,0.00,VWS V14.01,2013-01-04 15:07:00,
2013-01-04 07:12:00,32.4,30.6,30.31,NW,321,0.0,0.0,93,0.00,,---,0.00,VWS V14.01,2013-01-04 15:12:00,
2013-01-04 07:17:00,32.3,30.5,30.31,NW,321,0.0,0.0,93,0.00,,---,0.00,VWS V14.01,2013-01-04 15:17:00,
2013-01-04 07:22:00,32.2,30.4,30.31,NW,321,0.0,0.0,93,0.00,,---,0.00,VWS V14.01,2013-01-04 15:22:00,
2013-01-04 07:27:00,32.2,30.4,30.31,NW,321,2.0,2.0,93,0.00,,---,0.00,VWS V14.01,2013-01-04 15:27:00,
2013-01-04 07:32:00,32.3,30.5,30.31,NW,321,0.0,0.0,93,0.00,,---,0.00,VWS V14.01,2013-01-04 15:32:00,
2013-01-04 07:37:00,32.3,30.5,30.31,NW,321,0.0,0.0,93,0.00,,---,0.00,VWS V14.01,2013-01-04 15:37:00,
2013-01-04 07:42:00,32.5,31.0,30.31,NW,321,0.0,0.0,94,0.00,,---,0.00,VWS V14.01,2013-01-04 15:42:00,
2013-01-04 07:47:00,32.6,31.1,30.31,NW,321,0.0,0.0,94,0.00,,---,0.00,VWS V14.01,2013-01-04 15:47:00,
2013-01-04 07:52:00,32.9,31.4,30.31,NW,321,1.0,2.0,94,0.00,,---,0.00,VWS V14.01,2013-01-04 15:52:00,
2013-01-04 07:57:00,33.1,31.6,30.31,NW,321,0.0,0.0,94,0.00,,---,0.00,VWS V14.01,2013-01-04 15:57:00,
2013-01-04 08:02:00,33.5,32.0,30.30,NW,321,1.0,2.0,94,0.00,,---,0.00,VWS V14.01,2013-01-04 16:02:00,
2013-01-04 08:07:00,33.9,32.6,30.31,NW,321,0.0,0.0,95,0.00,,---,0.00,VWS V14.01,2013-01-04 16:07:00,
2013-01-04 08:12:00,34.4,33.1,30.31,NW,321,0.0,0.0,95,0.00,,---,0.00,VWS V14.01,2013-01-04 16:12:00,
2013-01-04 08:17:00,34.6,33.3,30.31,NW,321,1.0,2.0,95,0.00,,---,0.00,VWS V14.01,2013-01-04 16:17:00,
2013-01-04 08:22:00,35.0,33.5,30.31,NW,321,0.0,0.0,94,0.00,,---,0.00,VWS V14.01,2013-01-04 16:22:00,
2013-01-04 08:27:00,35.5,34.0,30.32,NW,322,0.0,0.0,94,0.00,,---,0.00,VWS V14.01,2013-01-04 16:27:00,
2013-01-04 08:32:00,35.7,34.2,30.32,NW,321,0.0,0.0,94,0.00,,---,0.00,VWS V14.01,2013-01-04 16:32:00,
2013-01-04 08:37:00,35.8,34.0,30.32,NW,322,0.0,0.0,93,0.00,,---,0.00,VWS V14.01,2013-01-04 16:37:00,
2013-01-04 08:42:00,36.0,33.9,30.32,WNW,292,0.0,0.0,92,0.00,,---,0.00,VWS V14.01,2013-01-04 16:42:00,
2013-01-04 08:47:00,36.7,34.9,30.32,WNW,293,0.0,0.0,93,0.00,,---,0.00,VWS V14.01,2013-01-04 16:47:00,
2013-01-04 08:52:00,37.5,34.8,30.33,WNW,293,0.0,0.0,90,0.00,,---,0.00,VWS V14.01,2013-01-04 16:52:00,
2013-01-04 08:57:00,38.3,35.6,30.33,WNW,293,0.0,0.0,90,0.00,,---,0.00,VWS V14.01,2013-01-04 16:57:00,
2013-01-04 09:02:00,39.3,36.0,30.33,WNW,293,0.0,0.0,88,0.00,,---,0.00,VWS V14.01,2013-01-04 17:02:00,
2013-01-04 09:07:00,39.7,35.9,30.33,WNW,291,0.0,0.0,86,0.00,,---,0.00,VWS V14.01,2013-01-04 17:07:00,
2013-01-04 09:12:00,39.9,35.8,30.33,WNW,291,0.0,0.0,85,0.00,,---,0.00,VWS V14.01,2013-01-04 17:12:00,
2013-01-04 09:17:00,40.0,35.9,30.33,WNW,290,2.0,2.0,85,0.00,,---,0.00,VWS V14.01,2013-01-04 17:17:00,
2013-01-04 09:22:00,40.1,36.3,30.33,WNW,288,0.0,0.0,86,0.00,,---,0.00,VWS V14.01,2013-01-04 17:22:00,
2013-01-04 09:27:00,40.6,36.5,30.33,WSW,241,2.0,2.0,85,0.00,,---,0.00,VWS V14.01,2013-01-04 17:27:00,
2013-01-04 09:32:00,40.8,36.7,30.33,WSW,241,1.0,2.0,85,0.00,,---,0.00,VWS V14.01,2013-01-04 17:32:00,
2013-01-04 09:37:00,41.3,37.1,30.33,WSW,238,1.0,2.0,85,0.00,,---,0.00,VWS V14.01,2013-01-04 17:37:00,
2013-01-04 09:42:00,42.0,37.8,30.33,SW,236,1.0,2.0,85,0.00,,---,0.00,VWS V14.01,2013-01-04 17:42:00,
2013-01-04 09:47:00,42.7,37.9,30.33,SW,231,3.0,3.0,83,0.00,,---,0.00,VWS V14.01,2013-01-04 17:47:00,
2013-01-04 09:52:00,43.3,38.2,30.33,SSW,204,2.0,4.0,82,0.00,,---,0.00,VWS V14.01,2013-01-04 17:52:00,
2013-01-04 09:57:00,44.0,38.9,30.33,SSW,198,2.0,2.0,82,0.00,,---,0.00,VWS V14.01,2013-01-04 17:57:00,
2013-01-04 10:02:00,44.5,38.7,30.33,SSW,198,3.0,4.0,80,0.00,,---,0.00,VWS V14.01,2013-01-04 18:02:00,
2013-01-04 10:07:00,45.0,38.9,30.33,SSW,197,3.0,3.0,79,0.00,,---,0.00,VWS V14.01,2013-01-04 18:07:00,
2013-01-04 10:12:00,45.1,39.0,30.33,SSE,148,3.0,3.0,79,0.00,,---,0.00,VWS V14.01,2013-01-04 18:12:00,
2013-01-04 10:17:00,45.4,39.0,30.33,SSE,153,2.0,3.0,78,0.00,,---,0.00,VWS V14.01,2013-01-04 18:17:00,
2013-01-04 10:22:00,45.4,39.0,30.33,SSE,153,3.0,5.0,78,0.00,,---,0.00,VWS V14.01,2013-01-04 18:22:00,
2013-01-04 10:27:00,45.5,39.0,30.33,SSE,153,2.0,3.0,78,0.00,,---,0.00,VWS V14.01,2013-01-04 18:27:00,
2013-01-04 10:32:00,45.4,39.0,30.33,SSE,153,0.0,0.0,78,0.00,,---,0.00,VWS V14.01,2013-01-04 18:32:00,
2013-01-04 10:37:00,45.5,39.0,30.33,SSE,153,0.0,0.0,78,0.00,,---,0.00,VWS V14.01,2013-01-04 18:37:00,
2013-01-04 10:42:00,45.5,39.0,30.33,SSE,160,0.0,0.0,78,0.00,,---,0.00,VWS V14.01,2013-01-04 18:42:00,
2013-01-04 10:47:00,45.6,39.2,30.33,SSE,161,0.0,0.0,78,0.00,,---,0.00,VWS V14.01,2013-01-04 18:47:00,
2013-01-04 10:52:00,45.7,38.9,30.33,SSE,163,3.0,3.0,77,0.00,,---,0.00,VWS V14.01,2013-01-04 18:52:00,
2013-01-04 10:57:00,45.8,39.0,30.33,SSW,200,0.0,1.0,77,0.00,,---,0.00,VWS V14.01,2013-01-04 18:57:00,
2013-01-04 11:02:00,46.0,38.9,30.32,SSW,198,1.0,2.0,76,0.00,,---,0.00,VWS V14.01,2013-01-04 19:02:00,
2013-01-04 11:07:00,46.2,39.4,30.32,SSW,210,2.0,2.0,77,0.00,,---,0.00,VWS V14.01,2013-01-04 19:07:00,
2013-01-04 11:12:00,46.5,39.0,30.32,SSW,194,4.0,4.0,75,0.00,,---,0.00,VWS V14.01,2013-01-04 19:12:00,
2013-01-04 11:17:00,46.8,39.3,30.31,South,188,2.0,3.0,75,0.00,,---,0.00,VWS V14.01,2013-01-04 19:17:00,
2013-01-04 11:22:00,47.0,39.2,30.31,South,191,0.0,0.0,74,0.00,,---,0.00,VWS V14.01,2013-01-04 19:22:00,
2013-01-04 11:27:00,47.3,39.5,30.31,SW,231,2.0,2.0,74,0.00,,---,0.00,VWS V14.01,2013-01-04 19:27:00,
2013-01-04 11:32:00,47.4,39.2,30.31,SSW,210,0.0,0.0,73,0.00,,---,0.00,VWS V14.01,2013-01-04 19:32:00,
2013-01-04 11:37:00,47.7,39.5,30.31,SSW,197,1.0,2.0,73,0.00,,---,0.00,VWS V14.01,2013-01-04 19:37:00,
2013-01-04 11:42:00,47.9,39.3,30.31,SSW,200,3.0,3.0,72,0.00,,---,0.00,VWS V14.01,2013-01-04 19:42:00,
2013-01-04 11:47:00,48.2,40.0,30.31,SSW,200,2.0,3.0,73,0.00,,---,0.00,VWS V14.01,2013-01-04 19:47:00,
2013-01-04 11:52:00,48.6,39.6,30.30,SSW,200,0.0,0.0,71,0.00,,---,0.00,VWS V14.01,2013-01-04 19:52:00,
2013-01-04 11:57:00,48.7,39.4,30.30,SSW,200,0.0,0.0,70,0.00,,---,0.00,VWS V14.01,2013-01-04 19:57:00,
2013-01-04 12:02:00,48.8,39.8,30.30,SSW,200,0.0,0.0,71,0.00,,---,0.00,VWS V14.01,2013-01-04 20:02:00,
2013-01-04 12:07:00,49.2,39.8,30.29,SSW,200,1.0,2.0,70,0.00,,---,0.00,VWS V14.01,2013-01-04 20:07:00,
2013-01-04 12:12:00,49.3,39.6,30.29,SSW,200,0.0,0.0,69,0.00,,---,0.00,VWS V14.01,2013-01-04 20:12:00,
2013-01-04 12:17:00,49.4,39.7,30.29,SSW,200,0.0,0.0,69,0.00,,---,0.00,VWS V14.01,2013-01-04 20:17:00,
2013-01-04 12:22:00,49.6,39.9,30.29,SSW,200,0.0,0.0,69,0.00,,---,0.00,VWS V14.01,2013-01-04 20:22:00,
2013-01-04 12:27:00,49.9,39.8,30.28,SSW,200,0.0,0.0,68,0.00,,---,0.00,VWS V14.01,2013-01-04 20:27:00,
2013-01-04 12:32:00,50.3,39.8,30.28,SSW,200,0.0,0.0,67,0.00,,---,0.00,VWS V14.01,2013-01-04 20:32:00,
2013-01-04 12:37:00,50.7,39.8,30.28,SSW,200,0.0,0.0,66,0.00,,---,0.00,VWS V14.01,2013-01-04 20:37:00,
2013-01-04 12:42:00,50.8,39.9,30.28,SSW,200,0.0,0.0,66,0.00,,---,0.00,VWS V14.01,2013-01-04 20:42:00,
2013-01-04 12:47:00,51.0,39.7,30.27,SSW,200,0.0,0.0,65,0.00,,---,0.00,VWS V14.01,2013-01-04 20:47:00,
2013-01-04 12:52:00,51.3,40.3,30.27,SSW,200,1.0,2.0,66,0.00,,---,0.00,VWS V14.01,2013-01-04 20:52:00,
2013-01-04 12:57:00,51.8,40.4,30.27,SSW,200,3.0,3.0,65,0.00,,---,0.00,VWS V14.01,2013-01-04 20:57:00,
2013-01-04 13:02:00,52.3,40.5,30.27,SSW,199,0.0,1.0,64,0.00,,---,0.00,VWS V14.01,2013-01-04 21:02:00,
2013-01-04 13:07:00,52.7,40.5,30.27,SSW,199,0.0,0.0,63,0.00,,---,0.00,VWS V14.01,2013-01-04 21:07:00,
2013-01-04 13:12:00,53.0,40.3,30.26,SSW,199,0.0,0.0,62,0.00,,---,0.00,VWS V14.01,2013-01-04 21:12:00,
2013-01-04 13:17:00,53.2,40.5,30.26,SSW,200,0.0,0.0,62,0.00,,---,0.00,VWS V14.01,2013-01-04 21:17:00,
2013-01-04 13:22:00,53.4,40.3,30.26,SSW,199,0.0,0.0,61,0.00,,---,0.00,VWS V14.01,2013-01-04 21:22:00,
2013-01-04 13:27:00,53.7,40.6,30.26,SSW,199,0.0,0.0,61,0.00,,---,0.00,VWS V14.01,2013-01-04 21:27:00,
2013-01-04 13:32:00,54.0,40.4,30.26,SSW,199,0.0,0.0,60,0.00,,---,0.00,VWS V14.01,2013-01-04 21:32:00,
2013-01-04 13:37:00,54.4,40.4,30.25,SSW,198,0.0,0.0,59,0.00,,---,0.00,VWS V14.01,2013-01-04 21:37:00,
2013-01-04 13:42:00,54.5,40.5,30.25,South,169,4.0,4.0,59,0.00,,---,0.00,VWS V14.01,2013-01-04 21:42:00,
2013-01-04 13:47:00,54.6,40.6,30.25,South,169,3.0,3.0,59,0.00,,---,0.00,VWS V14.01,2013-01-04 21:47:00,
2013-01-04 13:52:00,54.8,40.3,30.24,SSE,168,3.0,3.0,58,0.00,,---,0.00,VWS V14.01,2013-01-04 21:52:00,
2013-01-04 13:57:00,55.0,39.6,30.25,SE,130,3.0,4.0,56,0.00,,---,0.00,VWS V14.01,2013-01-04 21:57:00,
2013-01-04 14:02:00,55.1,39.7,30.25,SE,134,1.0,2.0,56,0.00,,---,0.00,VWS V14.01,2013-01-04 22:02:00,
2013-01-04 14:07:00,55.3,40.3,30.25,ESE,120,0.0,3.0,57,0.00,,---,0.00,VWS V14.01,2013-01-04 22:07:00,
2013-01-04 14:12:00,55.6,40.6,30.24,SE,128,0.0,4.0,57,0.00,,---,0.00,VWS V14.01,2013-01-04 22:12:00,
2013-01-04 14:17:00,55.8,41.3,30.24,SE,128,0.0,0.0,58,0.00,,---,0.00,VWS V14.01,2013-01-04 22:17:00,
2013-01-04 14:22:00,55.8,40.4,30.24,SE,131,1.0,4.0,56,0.00,,---,0.00,VWS V14.01,2013-01-04 22:22:00,
2013-01-04 14:27:00,55.7,41.2,30.23,SE,135,0.0,1.0,58,0.00,,---,0.00,VWS V14.01,2013-01-04 22:27:00,
2013-01-04 14:32:00,56.0,41.0,30.23,SE,135,1.0,3.0,57,0.00,,---,0.00,VWS V14.01,2013-01-04 22:32:00,
2013-01-04 14:37:00,56.3,41.3,30.23,SE,130,5.0,6.0,57,0.00,,---,0.00,VWS V14.01,2013-01-04 22:37:00,
2013-01-04 14:42:00,56.5,40.5,30.24,SE,128,4.0,4.0,55,0.00,,---,0.00,VWS V14.01,2013-01-04 22:42:00,
2013-01-04 14:47:00,56.7,40.7,30.24,SE,128,0.0,0.0,55,0.00,,---,0.00,VWS V14.01,2013-01-04 22:47:00,
2013-01-04 14:52:00,56.9,41.4,30.24,SE,128,3.0,3.0,56,0.00,,---,0.00,VWS V14.01,2013-01-04 22:52:00,
2013-01-04 14:57:00,57.0,41.0,30.24,SE,128,0.0,0.0,55,0.00,,---,0.00,VWS V14.01,2013-01-04 22:57:00,
2013-01-04 15:02:00,56.9,40.4,30.23,SE,132,4.0,4.0,54,0.00,,---,0.00,VWS V14.01,2013-01-04 23:02:00,
2013-01-04 15:07:00,56.7,40.7,30.23,SE,133,3.0,3.0,55,0.00,,---,0.00,VWS V14.01,2013-01-04 23:07:00,
2013-01-04 15:12:00,56.9,40.0,30.23,SE,139,0.0,1.0,53,0.00,,---,0.00,VWS V14.01,2013-01-04 23:12:00,
2013-01-04 15:17:00,57.0,40.5,30.23,SE,139,0.0,2.0,54,0.00,,---,0.00,VWS V14.01,2013-01-04 23:17:00,
2013-01-04 15:22:00,57.2,40.7,30.23,SE,140,0.0,3.0,54,0.00,,---,0.00,VWS V14.01,2013-01-04 23:22:00,
2013-01-04 15:27:00,57.4,40.9,30.23,SE,140,0.0,2.0,54,0.00,,---,0.00,VWS V14.01,2013-01-04 23:27:00,
2013-01-04 15:32:00,57.2,41.2,30.23,SE,140,2.0,3.0,55,0.00,,---,0.00,VWS V14.01,2013-01-04 23:32:00,
2013-01-04 15:37:00,56.9,40.4,30.23,SE,140,0.0,1.0,54,0.00,,---,0.00,VWS V14.01,2013-01-04 23:37:00,
2013-01-04 15:42:00,56.8,40.3,30.23,SE,140,0.0,0.0,54,0.00,,---,0.00,VWS V14.01,2013-01-04 23:42:00,
2013-01-04 15:47:00,56.7,40.7,30.23,SE,140,0.0,0.0,55,0.00,,---,0.00,VWS V14.01,2013-01-04 23:47:00,
2013-01-04 15:52:00,56.7,40.7,30.23,SE,140,0.0,0.0,55,0.00,,---,0.00,VWS V14.01,2013-01-04 23:52:00,
2013-01-04 15:57:00,56.8,41.3,30.23,SE,140,0.0,1.0,56,0.00,,---,0.00,VWS V14.01,2013-01-04 23:57:00,
2013-01-04 16:02:00,56.7,41.2,30.22,SE,140,0.0,0.0,56,0.00,,---,0.00,VWS V14.01,2013-01-05 00:02:00,
2013-01-04 16:07:00,56.4,41.4,30.22,SE,140,0.0,0.0,57,0.00,,---,0.00,VWS V14.01,2013-01-05 00:07:00,
2013-01-04 16:12:00,55.9,40.9,30.22,SE,140,0.0,1.0,57,0.00,,---,0.00,VWS V14.01,2013-01-05 00:12:00,
2013-01-04 16:17:00,55.5,41.0,30.22,SE,140,0.0,0.0,58,0.00,,---,0.00,VWS V14.01,2013-01-05 00:17:00,
2013-01-04 16:22:00,55.1,41.0,30.22,SE,140,0.0,0.0,59,0.00,,---,0.00,VWS V14.01,2013-01-05 00:22:00,
2013-01-04 16:27:00,54.8,41.2,30.22,SE,140,0.0,0.0,60,0.00,,---,0.00,VWS V14.01,2013-01-05 00:27:00,
2013-01-04 16:32:00,54.5,40.9,30.22,SE,140,0.0,0.0,60,0.00,,---,0.00,VWS V14.01,2013-01-05 00:32:00,
2013-01-04 16:37:00,54.3,41.2,30.23,SE,140,0.0,0.0,61,0.00,,---,0.00,VWS V14.01,2013-01-05 00:37:00,
2013-01-04 16:42:00,54.0,41.3,30.22,SE,140,0.0,0.0,62,0.00,,---,0.00,VWS V14.01,2013-01-05 00:42:00,
2013-01-04 16:47:00,53.7,41.4,30.22,SE,140,0.0,0.0,63,0.00,,---,0.00,VWS V14.01,2013-01-05 00:47:00,
2013-01-04 16:52:00,53.3,41.0,30.22,SE,140,0.0,0.0,63,0.00,,---,0.00,VWS V14.01,2013-01-05 00:52:00,
2013-01-04 16:57:00,52.9,41.1,30.22,SE,140,0.0,0.0,64,0.00,,---,0.00,VWS V14.01,2013-01-05 00:57:00,
2013-01-04 17:02:00,52.6,41.6,30.22,SE,140,0.0,0.0,66,0.00,,---,0.00,VWS V14.01,2013-01-05 01:02:00,
2013-01-04 17:07:00,52.1,42.2,30.22,SE,140,0.0,0.0,69,0.00,,---,0.00,VWS V14.01,2013-01-05 01:07:00,
2013-01-04 17:12:00,51.6,41.8,30.22,SE,140,0.0,0.0,69,0.00,,---,0.00,VWS V14.01,2013-01-05 01:12:00,
2013-01-04 17:17:00,51.2,41.8,30.22,SE,140,0.0,0.0,70,0.00,,---,0.00,VWS V14.01,2013-01-05 01:17:00,
2013-01-04 17:22:00,50.8,41.8,30.22,SE,140,0.0,0.0,71,0.00,,---,0.00,VWS V14.01,2013-01-05 01:22:00,
2013-01-04 17:27:00,50.4,41.4,30.22,SE,140,0.0,0.0,71,0.00,,---,0.00,VWS V14.01,2013-01-05 01:27:00,
2013-01-04 17:32:00,49.9,41.2,30.22,SE,140,0.0,0.0,72,0.00,,---,0.00,VWS V14.01,2013-01-05 01:32:00,
2013-01-04 17:37:00,49.5,41.2,30.23,SE,140,0.0,0.0,73,0.00,,---,0.00,VWS V14.01,2013-01-05 01:37:00,
2013-01-04 17:42:00,49.1,41.2,30.23,SE,140,0.0,0.0,74,0.00,,---,0.00,VWS V14.01,2013-01-05 01:42:00,
2013-01-04 17:47:00,48.6,41.0,30.23,SE,140,0.0,0.0,75,0.00,,---,0.00,VWS V14.01,2013-01-05 01:47:00,
2013-01-04 17:52:00,48.2,41.0,30.23,SE,140,0.0,0.0,76,0.00,,---,0.00,VWS V14.01,2013-01-05 01:52:00,
2013-01-04 17:57:00,47.7,40.5,30.23,SE,140,0.0,0.0,76,0.00,,---,0.00,VWS V14.01,2013-01-05 01:57:00,
2013-01-04 18:02:00,47.3,40.5,30.23,SE,140,0.0,0.0,77,0.00,,---,0.00,VWS V14.01,2013-01-05 02:02:00,
2013-01-04 18:07:00,46.9,40.4,30.23,SE,140,0.0,0.0,78,0.00,,---,0.00,VWS V14.01,2013-01-05 02:07:00,
2013-01-04 18:12:00,46.6,40.5,30.24,SE,140,0.0,0.0,79,0.00,,---,0.00,VWS V14.01,2013-01-05 02:12:00,
2013-01-04 18:17:00,46.2,40.4,30.24,SE,140,0.0,0.0,80,0.00,,---,0.00,VWS V14.01,2013-01-05 02:17:00,
2013-01-04 18:22:00,45.9,40.1,30.23,SE,140,0.0,0.0,80,0.00,,---,0.00,VWS V14.01,2013-01-05 02:22:00,
2013-01-04 18:27:00,45.7,40.2,30.24,SE,140,0.0,0.0,81,0.00,,---,0.00,VWS V14.01,2013-01-05 02:27:00,
2013-01-04 18:32:00,45.4,39.9,30.24,SE,140,0.0,0.0,81,0.00,,---,0.00,VWS V14.01,2013-01-05 02:32:00,
2013-01-04 18:37:00,45.2,40.3,30.24,SE,140,0.0,0.0,83,0.00,,---,0.00,VWS V14.01,2013-01-05 02:37:00,
2013-01-04 18:41:00,45.0,40.2,30.24,SE,140,0.0,0.0,83,0.00,,---,0.00,VWS V14.01,2013-01-05 02:41:00,
2013-01-04 18:46:00,44.8,40.0,30.24,SE,140,0.0,0.0,83,0.00,,---,0.00,VWS V14.01,2013-01-05 02:46:00,
2013-01-04 18:51:00,44.6,39.8,30.24,SE,140,0.0,0.0,83,0.00,,---,0.00,VWS V14.01,2013-01-05 02:51:00,
2013-01-04 18:56:00,44.4,39.9,30.24,SE,140,0.0,0.0,84,0.00,,---,0.00,VWS V14.01,2013-01-05 02:56:00,
2013-01-04 19:01:00,44.1,39.6,30.25,SE,140,0.0,0.0,84,0.00,,---,0.00,VWS V14.01,2013-01-05 03:01:00,
2013-01-04 19:06:00,43.9,39.7,30.25,SE,140,0.0,0.0,85,0.00,,---,0.00,VWS V14.01,2013-01-05 03:06:00,
2013-01-04 19:11:00,43.7,39.5,30.25,SE,140,0.0,0.0,85,0.00,,---,0.00,VWS V14.01,2013-01-05 03:11:00,
2013-01-04 19:16:00,43.5,39.3,30.25,SE,140,0.0,0.0,85,0.00,,---,0.00,VWS V14.01,2013-01-05 03:16:00,
2013-01-04 19:21:00,43.3,39.1,30.25,SE,140,0.0,0.0,85,0.00,,---,0.00,VWS V14.01,2013-01-05 03:21:00,
2013-01-04 19:26:00,43.1,39.2,30.25,SE,140,0.0,0.0,86,0.00,,---,0.00,VWS V14.01,2013-01-05 03:26:00,
2013-01-04 19:31:00,42.9,39.0,30.25,SE,140,0.0,0.0,86,0.00,,---,0.00,VWS V14.01,2013-01-05 03:31:00,
2013-01-04 19:36:00,42.8,38.9,30.25,SE,140,0.0,0.0,86,0.00,,---,0.00,VWS V14.01,2013-01-05 03:36:00,
2013-01-04 19:41:00,42.6,38.7,30.25,SE,140,0.0,0.0,86,0.00,,---,0.00,VWS V14.01,2013-01-05 03:41:00,
2013-01-04 19:46:00,42.4,38.8,30.25,SE,140,0.0,0.0,87,0.00,,---,0.00,VWS V14.01,2013-01-05 03:46:00,
2013-01-04 19:51:00,42.3,38.7,30.25,SE,140,0.0,0.0,87,0.00,,---,0.00,VWS V14.01,2013-01-05 03:51:00,
2013-01-04 19:56:00,42.2,38.6,30.25,SE,140,0.0,0.0,87,0.00,,---,0.00,VWS V14.01,2013-01-05 03:56:00,
2013-01-04 20:01:00,42.1,38.5,30.26,SE,140,0.0,0.0,87,0.00,,---,0.00,VWS V14.01,2013-01-05 04:01:00,
2013-01-04 20:06:00,42.0,38.7,30.26,SE,140,0.0,0.0,88,0.00,,---,0.00,VWS V14.01,2013-01-05 04:06:00,
2013-01-04 20:11:00,41.9,38.6,30.26,SE,140,0.0,0.0,88,0.00,,---,0.00,VWS V14.01,2013-01-05 04:11:00,
2013-01-04 20:16:00,41.8,38.5,30.25,SE,140,0.0,0.0,88,0.00,,---,0.00,VWS V14.01,2013-01-05 04:16:00,
2013-01-04 20:21:00,41.8,38.5,30.25,SE,140,0.0,0.0,88,0.00,,---,0.00,VWS V14.01,2013-01-05 04:21:00,
2013-01-04 20:26:00,41.7,38.7,30.25,SE,140,0.0,0.0,89,0.00,,---,0.00,VWS V14.01,2013-01-05 04:26:00,
2013-01-04 20:31:00,41.7,38.7,30.26,SE,140,0.0,0.0,89,0.00,,---,0.00,VWS V14.01,2013-01-05 04:31:00,
2013-01-04 20:36:00,41.6,38.6,30.26,SE,140,0.0,0.0,89,0.00,,---,0.00,VWS V14.01,2013-01-05 04:36:00,
2013-01-04 20:41:00,41.7,39.0,30.26,SE,140,0.0,0.0,90,0.00,,---,0.00,VWS V14.01,2013-01-05 04:41:00,
2013-01-04 20:46:00,41.7,38.7,30.26,SE,140,0.0,0.0,89,0.00,,---,0.00,VWS V14.01,2013-01-05 04:46:00,
2013-01-04 20:51:00,41.7,38.7,30.26,SE,140,0.0,0.0,89,0.00,,---,0.00,VWS V14.01,2013-01-05 04:51:00,
2013-01-04 20:56:00,41.6,38.6,30.26,SE,140,0.0,0.0,89,0.00,,---,0.00,VWS V14.01,2013-01-05 04:56:00,
2013-01-04 21:00:00,41.6,38.6,30.26,SE,140,0.0,0.0,89,0.00,,---,0.00,VWS V14.01,2013-01-05 05:00:00,
2013-01-04 21:03:00,41.6,38.9,30.26,SE,140,0.0,0.0,90,0.00,,---,0.00,VWS V14.01,2013-01-05 05:03:00,
2013-01-04 21:08:00,41.6,38.9,30.26,SE,140,0.0,0.0,90,0.00,,---,0.00,VWS V14.01,2013-01-05 05:08:00,
2013-01-04 21:13:00,41.6,38.9,30.26,SE,140,0.0,0.0,90,0.00,,---,0.00,VWS V14.01,2013-01-05 05:13:00,
2013-01-04 21:18:00,41.6,38.9,30.26,SE,140,1.0,1.0,90,0.00,,---,0.00,VWS V14.01,2013-01-05 05:18:00,
2013-01-04 21:23:00,41.6,38.9,30.26,SE,140,0.0,0.0,90,0.00,,---,0.00,VWS V14.01,2013-01-05 05:23:00,
2013-01-04 21:28:00,41.7,39.0,30.26,SE,140,1.0,1.0,90,0.00,,---,0.00,VWS V14.01,2013-01-05 05:28:00,
2013-01-04 21:33:00,41.7,39.3,30.26,SE,140,1.0,1.0,91,0.00,,---,0.00,VWS V14.01,2013-01-05 05:33:00,
2013-01-04 21:38:00,41.8,39.1,30.26,SE,140,0.0,0.0,90,0.00,,---,0.00,VWS V14.01,2013-01-05 05:38:00,
2013-01-04 21:43:00,41.8,39.4,30.27,SE,140,0.0,0.0,91,0.00,,---,0.00,VWS V14.01,2013-01-05 05:43:00,
2013-01-04 21:48:00,41.9,39.5,30.27,SE,140,0.0,0.0,91,0.00,,---,0.00,VWS V14.01,2013-01-05 05:48:00,
2013-01-04 21:53:00,41.9,39.5,30.27,SE,140,0.0,0.0,91,0.00,,---,0.00,VWS V14.01,2013-01-05 05:53:00,
2013-01-04 21:58:00,41.9,39.5,30.27,SE,140,0.0,0.0,91,0.00,,---,0.00,VWS V14.01,2013-01-05 05:58:00,
2013-01-04 22:03:00,41.9,39.5,30.27,SE,140,0.0,0.0,91,0.00,,---,0.00,VWS V14.01,2013-01-05 06:03:00,
2013-01-04 22:08:00,41.9,39.2,30.27,SE,140,0.0,0.0,90,0.00,,---,0.00,VWS V14.01,2013-01-05 06:08:00,
2013-01-04 22:13:00,41.8,39.1,30.27,SE,140,0.0,0.0,90,0.00,,---,0.00,VWS V14.01,2013-01-05 06:13:00,
2013-01-04 22:18:00,41.7,39.0,30.27,SE,140,0.0,0.0,90,0.00,,---,0.00,VWS V14.01,2013-01-05 06:18:00,
2013-01-04 22:23:00,41.6,38.9,30.28,SE,140,0.0,0.0,90,0.00,,---,0.00,VWS V14.01,2013-01-05 06:23:00,
2013-01-04 22:28:00,41.5,38.8,30.28,SE,140,0.0,0.0,90,0.00,,---,0.00,VWS V14.01,2013-01-05 06:28:00,
2013-01-04 22:33:00,41.3,38.6,30.28,SE,140,0.0,0.0,90,0.00,,---,0.00,VWS V14.01,2013-01-05 06:33:00,
2013-01-04 22:38:00,41.2,38.5,30.28,SE,140,0.0,0.0,90,0.00,,---,0.00,VWS V14.01,2013-01-05 06:38:00,
2013-01-04 22:43:00,41.1,38.4,30.28,SE,140,0.0,0.0,90,0.00,,---,0.00,VWS V14.01,2013-01-05 06:43:00,
2013-01-04 22:48:00,41.0,38.3,30.28,SE,140,0.0,0.0,90,0.00,,---,0.00,VWS V14.01,2013-01-05 06:48:00,
2013-01-04 22:53:00,41.0,38.6,30.28,SE,140,0.0,0.0,91,0.00,,---,0.00,VWS V14.01,2013-01-05 06:53:00,
2013-01-04 22:58:00,40.9,38.5,30.28,SE,140,0.0,0.0,91,0.00,,---,0.00,VWS V14.01,2013-01-05 06:58:00,
2013-01-04 23:03:00,40.9,38.5,30.28,SE,140,0.0,0.0,91,0.00,,---,0.00,VWS V14.01,2013-01-05 07:03:00,
2013-01-04 23:08:00,40.9,38.5,30.27,SE,139,2.0,2.0,91,0.00,,---,0.00,VWS V14.01,2013-01-05 07:08:00,
2013-01-04 23:13:00,41.0,38.6,30.27,SE,140,1.0,2.0,91,0.00,,---,0.00,VWS V14.01,2013-01-05 07:13:00,
2013-01-04 23:18:00,41.1,38.7,30.27,SE,140,0.0,0.0,91,0.00,,---,0.00,VWS V14.01,2013-01-05 07:18:00,
2013-01-04 23:23:00,41.1,38.7,30.27,SE,140,0.0,0.0,91,0.00,,---,0.00,VWS V14.01,2013-01-05 07:23:00,
2013-01-04 23:28:00,41.0,38.3,30.27,SE,140,0.0,0.0,90,0.00,,---,0.00,VWS V14.01,2013-01-05 07:28:00,
2013-01-04 23:33:00,40.9,38.2,30.27,SE,140,0.0,0.0,90,0.00,,---,0.00,VWS V14.01,2013-01-05 07:33:00,
2013-01-04 23:38:00,40.8,38.1,30.27,SE,140,0.0,0.0,90,0.00,,---,0.00,VWS V14.01,2013-01-05 07:38:00,
2013-01-04 23:43:00,40.7,38.0,30.27,SE,140,0.0,0.0,90,0.00,,---,0.00,VWS V14.01,2013-01-05 07:43:00,
2013-01-04 23:48:00,40.6,38.2,30.27,SE,140,0.0,0.0,91,0.00,,---,0.00,VWS V14.01,2013-01-05 07:48:00,
2013-01-04 23:53:00,40.4,37.7,30.27,SE,140,1.0,1.0,90,0.00,,---,0.00,VWS V14.01,2013-01-05 07:53:00,
2013-01-04 23:58:00,40.2,37.8,30.27,SE,140,0.0,1.0,91,0.00,,---,0.00,VWS V14.01,2013-01-05 07:58:00,